Time;durP1;ratioP1;P1;durP2;ratioP2;P2;SDS_P1;SDS_P2;PMS_P1;PMS_P2;Temp;Humidity;BMP_temperature;BMP_pressure;BME280_temperature;BME280_humidity;BME280_pressure;Samples;Min_cycle;Max_cycle;Signal;HPM_P1;HPM_P2
2023/06/16 00:01:23;;;;;;;3.78;3.40;;;17.20;73.80;;;;;;5099705;28;20089;-55
2023/06/16 00:03:51;;;;;;;7.90;3.03;;;17.20;74.00;;;;;;5091147;28;20377;-56
2023/06/16 00:06:19;;;;;;;6.10;3.35;;;17.10;74.50;;;;;;5100993;28;20110;-56
2023/06/16 00:08:54;;;;;;;6.57;3.00;;;17.10;74.60;;;;;;5098990;28;20385;-54
2023/06/16 00:11:20;;;;;;;6.28;3.75;;;17.10;74.70;;;;;;5109569;28;20492;-54
2023/06/16 00:13:46;;;;;;;4.05;3.47;;;17.00;74.80;;;;;;5110818;28;20031;-57
2023/06/16 00:16:13;;;;;;;4.32;3.85;;;17.00;75.00;;;;;;5103114;28;20040;-56
2023/06/16 00:18:43;;;;;;;3.92;3.50;;;17.00;75.10;;;;;;5090537;28;20036;-56
2023/06/16 00:21:09;;;;;;;9.63;4.43;;;16.90;75.30;;;;;;5097566;28;20518;-55
2023/06/16 00:23:35;;;;;;;3.97;3.58;;;17.00;75.50;;;;;;5107978;28;20036;-53
2023/06/16 00:26:01;;;;;;;;;;;16.90;75.70;;;;;;5095037;28;20036;-53
2023/06/16 00:28:27;;;;;;;7.35;4.25;;;16.90;76.30;;;;;;5109143;28;19916;-53
2023/06/16 00:30:52;;;;;;;9.25;4.40;;;16.80;75.90;;;;;;5100366;28;20034;-54
2023/06/16 00:33:18;;;;;;;7.90;3.85;;;16.80;76.00;;;;;;5089275;28;20566;-57
2023/06/16 00:35:43;;;;;;;8.25;3.80;;;16.70;76.00;;;;;;5091488;28;20032;-55
2023/06/16 00:38:09;;;;;;;6.53;4.22;;;16.70;76.40;;;;;;5107669;28;20046;-55
2023/06/16 00:40:35;;;;;;;3.90;3.50;;;16.60;76.40;;;;;;5098886;28;20484;-54
2023/06/16 00:43:02;;;;;;;5.88;3.50;;;16.50;76.80;;;;;;5090393;28;20028;-57
2023/06/16 00:45:28;;;;;;;5.57;3.47;;;16.50;76.70;;;;;;5089630;28;20378;-53
2023/06/16 00:47:55;;;;;;;6.93;4.25;;;16.50;77.10;;;;;;5090276;28;20449;-53
2023/06/16 00:50:21;;;;;;;5.47;3.80;;;16.50;77.30;;;;;;5090218;28;20412;-52
2023/06/16 00:52:46;;;;;;;;;;;16.50;77.30;;;;;;5092181;28;20037;-53
2023/06/16 00:55:12;;;;;;;6.90;4.10;;;16.50;77.90;;;;;;5102640;28;20376;-53
2023/06/16 00:57:39;;;;;;;5.75;4.63;;;16.50;77.40;;;;;;5094290;28;20040;-53
2023/06/16 01:00:07;;;;;;;5.63;4.00;;;16.40;77.50;;;;;;5090338;28;20389;-58
2023/06/16 01:02:33;;;;;;;8.27;5.63;;;16.40;77.60;;;;;;5103514;28;20045;-61
2023/06/16 01:04:59;;;;;;;;;;;16.40;77.70;;;;;;5109868;28;20051;-53
2023/06/16 01:07:41;;;;;;;5.32;4.40;;;16.40;78.40;;;;;;5098392;28;20273;-53
2023/06/16 01:10:18;;;;;;;6.30;4.78;;;16.30;78.10;;;;;;5105219;28;20062;-53
2023/06/16 01:13:07;;;;;;;10.75;4.80;;;16.30;77.90;;;;;;5108416;28;20453;-57
2023/06/16 01:15:36;;;;;;;6.25;4.43;;;16.30;78.40;;;;;;5110570;28;20109;-53
2023/06/16 01:18:04;;;;;;;5.97;4.50;;;16.20;78.40;;;;;;5074530;28;20078;-56
2023/06/16 01:20:48;;;;;;;10.00;5.50;;;16.10;78.30;;;;;;5089950;28;20048;-53
2023/06/16 01:23:40;;;;;;;7.78;5.25;;;16.10;78.60;;;;;;5097432;28;20500;-55
2023/06/16 01:26:07;;;;;;;15.57;5.53;;;16.10;78.80;;;;;;5088318;28;20048;-55
2023/06/16 01:28:35;;;;;;;7.43;5.25;;;16.10;78.60;;;;;;5107928;28;20475;-53
2023/06/16 01:31:02;;;;;;;8.20;5.22;;;16.00;78.80;;;;;;5090734;28;20040;-57
2023/06/16 01:33:31;;;;;;;5.40;4.90;;;16.00;78.90;;;;;;5090117;28;20034;-56
2023/06/16 01:35:57;;;;;;;7.00;4.90;;;15.90;79.20;;;;;;5089503;28;20097;-54
2023/06/16 01:38:25;;;;;;;4.95;4.55;;;15.90;79.30;;;;;;5104610;28;20450;-56
2023/06/16 01:40:51;;;;;;;8.40;5.70;;;15.90;79.30;;;;;;5110184;28;20050;-55
2023/06/16 01:43:18;;;;;;;8.07;5.13;;;15.80;79.40;;;;;;5094555;28;20051;-52
2023/06/16 01:45:45;;;;;;;6.25;4.65;;;15.70;79.40;;;;;;5087863;28;20040;-56
2023/06/16 01:48:11;;;;;;;5.95;5.13;;;15.70;79.50;;;;;;5096967;28;20115;-55
2023/06/16 01:50:37;;;;;;;7.88;5.28;;;15.70;79.70;;;;;;5088583;28;20115;-57
2023/06/16 01:53:02;;;;;;;7.38;5.43;;;15.60;80.30;;;;;;5089604;28;20044;-57
2023/06/16 01:55:28;;;;;;;8.68;5.93;;;15.60;79.90;;;;;;5089361;28;20071;-53
2023/06/16 01:57:56;;;;;;;10.05;6.18;;;15.50;79.80;;;;;;5089211;28;20067;-56
2023/06/16 02:00:33;;;;;;;7.45;5.90;;;15.50;80.20;;;;;;5090016;28;20489;-53
2023/06/16 02:03:11;;;;;;;7.43;5.70;;;15.50;80.50;;;;;;5088870;28;20036;-56
2023/06/16 02:05:41;;;;;;;11.00;5.68;;;15.40;80.80;;;;;;5089483;28;20048;-52
2023/06/16 02:08:09;;;;;;;7.40;5.85;;;15.40;80.80;;;;;;5098562;28;20117;-57
2023/06/16 02:10:35;;;;;;;6.82;5.65;;;15.40;80.70;;;;;;5109462;28;20035;-54
2023/06/16 02:13:00;;;;;;;6.32;5.13;;;15.40;80.90;;;;;;5100586;28;20066;-56
2023/06/16 02:15:27;;;;;;;11.45;5.53;;;15.30;81.00;;;;;;5087668;28;20067;-53
2023/06/16 02:17:57;;;;;;;9.07;5.57;;;15.30;81.10;;;;;;5096796;28;20047;-56
2023/06/16 02:20:25;;;;;;;10.40;5.72;;;15.30;81.10;;;;;;5112851;28;20051;-53
2023/06/16 02:22:50;;;;;;;7.57;6.00;;;15.20;81.30;;;;;;5111077;28;20445;-57
2023/06/16 02:25:16;;;;;;;8.63;4.88;;;15.20;81.50;;;;;;5107912;28;20119;-53
2023/06/16 02:27:43;;;;;;;12.43;5.82;;;15.20;81.50;;;;;;5109927;28;20040;-56
2023/06/16 02:30:12;;;;;;;10.70;5.50;;;15.10;81.70;;;;;;5092839;28;20036;-53
2023/06/16 02:32:38;;;;;;;11.15;5.97;;;15.10;82.00;;;;;;5094538;28;20465;-56
2023/06/16 02:35:05;;;;;;;6.53;5.88;;;15.00;82.20;;;;;;5112543;28;20500;-56
2023/06/16 02:37:35;;;;;;;8.68;5.63;;;14.90;82.70;;;;;;5110241;28;20134;-54
2023/06/16 02:40:04;;;;;;;8.55;5.13;;;14.90;83.00;;;;;;5071547;28;20045;-52
2023/06/16 02:42:30;;;;;;;10.20;6.32;;;14.90;83.30;;;;;;5079378;28;20097;-55
2023/06/16 02:44:56;;;;;;;15.35;5.82;;;14.90;83.40;;;;;;5111818;28;20044;-56
2023/06/16 02:47:22;;;;;;;6.43;5.32;;;14.90;83.60;;;;;;5113274;28;20040;-55
2023/06/16 02:49:48;;;;;;;7.90;5.25;;;14.80;83.20;;;;;;5096332;28;20075;-53
2023/06/16 02:52:14;;;;;;;8.77;5.07;;;14.70;83.70;;;;;;5112855;28;20043;-53
2023/06/16 02:54:40;;;;;;;8.70;6.00;;;14.60;83.90;;;;;;5094124;28;20092;-55
2023/06/16 02:57:07;;;;;;;11.10;5.95;;;14.60;84.50;;;;;;5091893;28;20088;-56
2023/06/16 02:59:33;;;;;;;6.10;5.50;;;14.60;84.80;;;;;;5102117;28;20117;-58
2023/06/16 03:01:59;;;;;;;9.55;6.53;;;14.60;85.40;;;;;;5092107;28;20477;-56
2023/06/16 03:04:25;;;;;;;11.85;7.80;;;14.60;85.40;;;;;;5092002;28;20036;-57
2023/06/16 03:06:57;;;;;;;7.03;6.18;;;14.60;85.70;;;;;;5092438;28;20509;-54
2023/06/16 03:09:23;;;;;;;7.82;6.43;;;14.60;85.60;;;;;;5101800;28;20067;-57
2023/06/16 03:11:49;;;;;;;6.30;5.70;;;14.60;85.70;;;;;;5112249;28;20161;-58
2023/06/16 03:14:14;;;;;;;10.00;6.47;;;14.60;85.60;;;;;;5110372;27;20063;-52
2023/06/16 03:16:40;;;;;;;7.50;5.75;;;14.60;85.70;;;;;;5098160;28;20046;-52
2023/06/16 03:19:06;;;;;;;8.90;6.47;;;14.50;86.00;;;;;;5097533;28;20040;-53
2023/06/16 03:21:31;;;;;;;9.02;7.13;;;14.50;86.00;;;;;;5112958;28;20077;-56
2023/06/16 03:23:57;;;;;;;8.48;6.95;;;14.40;86.10;;;;;;5108704;28;20034;-53
2023/06/16 03:26:24;;;;;;;8.07;6.68;;;14.40;86.30;;;;;;5112344;28;20062;-53
2023/06/16 03:28:50;;;;;;;8.82;6.95;;;14.40;86.50;;;;;;5108036;28;20488;-56
2023/06/16 03:31:17;;;;;;;9.57;6.25;;;14.40;86.80;;;;;;5091994;28;20093;-56
2023/06/16 03:33:43;;;;;;;9.57;6.40;;;14.40;86.80;;;;;;5091752;28;20105;-53
2023/06/16 03:36:09;;;;;;;9.88;6.28;;;14.40;86.60;;;;;;5112209;27;20039;-52
2023/06/16 03:38:34;;;;;;;7.28;6.05;;;14.40;86.70;;;;;;5110552;28;20032;-55
2023/06/16 03:41:00;;;;;;;10.95;6.47;;;14.40;86.80;;;;;;5111984;28;20043;-56
2023/06/16 03:43:25;;;;;;;7.50;6.82;;;14.40;87.00;;;;;;5109325;28;20075;-53
2023/06/16 03:45:51;;;;;;;12.02;6.10;;;14.40;87.10;;;;;;5093141;28;20078;-53
2023/06/16 03:48:17;;;;;;;6.68;5.97;;;14.30;87.30;;;;;;5094767;28;20573;-55
2023/06/16 03:50:42;;;;;;;8.55;6.97;;;14.40;87.30;;;;;;5091770;28;20043;-57
2023/06/16 03:53:08;;;;;;;8.50;6.72;;;14.30;87.40;;;;;;5095926;28;20525;-57
2023/06/16 03:55:33;;;;;;;6.32;5.72;;;14.30;87.60;;;;;;5090953;28;20044;-52
2023/06/16 03:57:59;;;;;;;10.90;5.95;;;14.30;87.70;;;;;;5094746;28;20124;-54
2023/06/16 04:00:25;;;;;;;8.18;5.93;;;14.20;87.90;;;;;;5110730;28;20043;-57
2023/06/16 04:02:50;;;;;;;8.52;6.72;;;14.20;88.10;;;;;;5106555;28;20032;-59
2023/06/16 04:05:17;;;;;;;8.90;6.60;;;14.20;88.80;;;;;;5104936;28;20189;-53
2023/06/16 04:07:43;;;;;;;10.70;6.10;;;14.20;89.30;;;;;;5104463;28;20169;-58
2023/06/16 04:10:09;;;;;;;10.43;6.25;;;14.20;89.90;;;;;;5091756;28;20119;-56
2023/06/16 04:12:34;;;;;;;9.45;7.47;;;14.20;90.00;;;;;;5089763;28;20036;-53
2023/06/16 04:15:00;;;;;;;10.65;7.60;;;14.30;90.10;;;;;;5089981;28;20040;-53
2023/06/16 04:17:25;;;;;;;7.20;6.60;;;14.30;90.10;;;;;;5090606;28;20047;-54
2023/06/16 04:19:51;;;;;;;10.30;7.95;;;14.30;90.10;;;;;;5090021;28;20304;-54
2023/06/16 04:22:16;;;;;;;14.65;7.45;;;14.40;90.20;;;;;;5091098;28;20032;-55
2023/06/16 04:24:42;;;;;;;8.85;7.30;;;14.40;90.20;;;;;;5089984;28;20036;-55
2023/06/16 04:27:08;;;;;;;10.90;7.38;;;14.40;90.10;;;;;;5090389;28;20120;-53
2023/06/16 04:29:41;;;;;;;10.07;8.30;;;14.50;90.30;;;;;;5090337;28;20443;-55
2023/06/16 04:32:11;;;;;;;10.40;7.82;;;14.50;90.30;;;;;;5090566;28;20077;-53
2023/06/16 04:34:42;;;;;;;10.48;6.95;;;14.60;90.30;;;;;;5090313;28;20648;-53
2023/06/16 04:37:11;;;;;;;9.07;8.18;;;14.60;90.40;;;;;;5090481;28;20398;-56
2023/06/16 04:39:37;;;;;;;9.88;8.07;;;14.60;90.50;;;;;;5088876;28;20047;-55
2023/06/16 04:42:04;;;;;;;8.82;7.78;;;14.70;90.70;;;;;;5090395;28;20051;-53
2023/06/16 04:44:30;;;;;;;8.98;8.13;;;14.70;90.90;;;;;;5089777;28;20119;-56
2023/06/16 04:46:56;;;;;;;14.45;8.73;;;14.80;91.20;;;;;;5090092;28;20032;-53
2023/06/16 04:49:22;;;;;;;13.63;7.82;;;14.80;91.60;;;;;;5090081;28;20036;-57
2023/06/16 04:51:47;;;;;;;10.13;8.98;;;14.90;91.70;;;;;;5090128;28;20493;-54
2023/06/16 04:54:13;;;;;;;12.98;8.93;;;15.00;91.80;;;;;;5089195;28;20036;-53
2023/06/16 04:56:39;;;;;;;13.23;9.13;;;15.10;92.10;;;;;;5090600;28;20040;-56
2023/06/16 04:59:05;;;;;;;;;;;15.10;92.50;;;;;;5090073;28;20048;-53
2023/06/16 05:01:31;;;;;;;11.65;9.05;;;15.20;93.60;;;;;;5090563;28;19915;-52
2023/06/16 05:03:57;;;;;;;11.18;8.75;;;15.20;93.30;;;;;;5089398;28;20035;-57
2023/06/16 05:06:22;;;;;;;9.55;8.52;;;15.20;93.60;;;;;;5090003;28;20126;-59
2023/06/16 05:08:48;;;;;;;13.90;9.77;;;15.30;93.80;;;;;;5088971;28;20081;-53
2023/06/16 05:11:13;;;;;;;13.52;8.60;;;15.40;94.00;;;;;;5090000;28;20028;-54
2023/06/16 05:13:39;;;;;;;11.63;9.25;;;15.50;94.00;;;;;;5089106;28;20039;-53
2023/06/16 05:16:06;;;;;;;11.38;9.35;;;15.50;94.40;;;;;;5088516;28;20505;-57
2023/06/16 05:18:31;;;;;;;15.43;9.75;;;15.60;94.70;;;;;;5088960;28;20036;-53
2023/06/16 05:20:57;;;;;;;12.63;9.13;;;15.70;95.00;;;;;;5089744;28;20032;-59
2023/06/16 05:23:22;;;;;;;12.95;10.43;;;15.80;95.20;;;;;;5089158;28;20097;-53
2023/06/16 05:25:48;;;;;;;15.93;10.93;;;15.90;95.30;;;;;;5089089;28;20489;-55
2023/06/16 05:28:13;;;;;;;12.50;11.05;;;16.00;95.40;;;;;;5089574;28;20036;-55
2023/06/16 05:30:39;;;;;;;13.57;11.38;;;16.10;95.40;;;;;;5090400;28;20067;-58
2023/06/16 05:33:04;;;;;;;12.85;11.00;;;16.20;95.50;;;;;;5089308;28;20039;-57
2023/06/16 05:35:30;;;;;;;13.05;11.45;;;16.30;95.70;;;;;;5089676;28;20040;-55
2023/06/16 05:37:56;;;;;;;13.50;10.60;;;16.40;96.00;;;;;;5088680;28;20044;-54
2023/06/16 05:40:21;;;;;;;22.55;12.27;;;16.40;96.00;;;;;;5089600;28;20556;-56
2023/06/16 05:42:47;;;;;;;16.42;11.02;;;16.60;95.90;;;;;;5089845;28;20044;-54
2023/06/16 05:45:12;;;;;;;12.05;10.82;;;16.60;95.80;;;;;;5089069;28;20059;-55
2023/06/16 05:47:38;;;;;;;12.60;11.13;;;16.70;96.00;;;;;;5088611;28;20075;-58
2023/06/16 05:50:04;;;;;;;13.10;11.85;;;16.80;96.00;;;;;;5089026;28;20032;-53
2023/06/16 05:52:30;;;;;;;15.07;11.32;;;16.90;96.00;;;;;;5080453;28;20375;-57
2023/06/16 05:54:57;;;;;;;;;;;17.00;96.00;;;;;;5082258;28;20041;-55
2023/06/16 05:57:22;;;;;;;11.85;10.65;;;17.10;96.30;;;;;;5078220;28;19966;-57
2023/06/16 05:59:49;;;;;;;14.05;11.20;;;17.10;95.80;;;;;;5068485;28;20457;-55
2023/06/16 06:02:14;;;;;;;15.13;11.10;;;17.20;95.70;;;;;;5094662;28;20043;-54
2023/06/16 06:04:40;;;;;;;13.35;10.75;;;17.30;96.00;;;;;;5092091;28;20036;-60
2023/06/16 06:07:06;;;;;;;12.13;10.93;;;17.40;95.60;;;;;;5092795;28;20044;-54
2023/06/16 06:09:31;;;;;;;17.75;11.15;;;17.40;96.00;;;;;;5092798;28;20036;-53
2023/06/16 06:11:57;;;;;;;10.00;8.98;;;17.50;95.80;;;;;;5093427;28;20028;-57
2023/06/16 06:14:23;;;;;;;15.60;11.38;;;17.60;95.70;;;;;;5092156;28;20032;-56
2023/06/16 06:16:49;;;;;;;12.48;11.27;;;17.70;95.60;;;;;;5093253;28;20562;-53
2023/06/16 06:19:15;;;;;;;12.52;11.38;;;17.80;95.90;;;;;;5091538;28;20091;-57
2023/06/16 06:21:40;;;;;;;15.25;11.60;;;17.90;95.70;;;;;;5092596;28;20517;-55
2023/06/16 06:24:06;;;;;;;14.20;12.02;;;18.00;95.50;;;;;;5088263;28;20076;-52
2023/06/16 06:26:32;;;;;;;12.55;10.07;;;18.10;95.20;;;;;;5093045;28;20119;-56
2023/06/16 06:28:58;;;;;;;12.55;10.88;;;18.20;95.20;;;;;;5093071;28;20114;-53
2023/06/16 06:31:23;;;;;;;12.30;10.85;;;18.30;95.00;;;;;;5093021;28;20035;-53
2023/06/16 06:33:49;;;;;;;12.82;10.98;;;18.30;94.30;;;;;;5092146;28;20409;-55
2023/06/16 06:36:26;;;;;;;14.27;10.60;;;18.40;94.20;;;;;;5092213;28;20040;-57
2023/06/16 06:38:53;;;;;;;13.15;10.68;;;18.50;94.50;;;;;;5091782;28;20044;-53
2023/06/16 06:41:19;;;;;;;;;;;18.60;94.40;;;;;;5092703;28;20040;-53
2023/06/16 06:43:45;;;;;;;11.80;10.68;;;18.60;94.50;;;;;;5091752;28;19915;-56
2023/06/16 06:46:11;;;;;;;;;;;18.70;94.00;;;;;;5082416;28;20417;-57
2023/06/16 06:48:37;;;;;;;15.77;10.55;;;18.80;93.80;;;;;;5087215;28;20010;-53
2023/06/16 06:51:02;;;;;;;;;;;18.90;93.40;;;;;;5093435;28;20458;-53
2023/06/16 06:53:28;;;;;;;15.07;9.82;;;19.00;93.20;;;;;;5086534;28;19915;-56
2023/06/16 06:55:54;;;;;;;10.25;9.23;;;19.10;92.90;;;;;;5081514;28;20049;-53
2023/06/16 06:58:19;;;;;;;11.63;9.48;;;19.20;92.30;;;;;;5088817;28;20493;-60
2023/06/16 07:00:45;;;;;;;10.50;9.50;;;19.30;91.90;;;;;;5091756;28;20036;-55
2023/06/16 07:03:12;;;;;;;;;;;19.40;91.50;;;;;;5091750;28;20336;-54
2023/06/16 07:05:38;;;;;;;15.90;9.02;;;19.50;91.70;;;;;;5091838;28;20401;-56
2023/06/16 07:08:03;;;;;;;;;;;19.60;91.30;;;;;;5092228;28;20028;-53
2023/06/16 07:10:32;;;;;;;12.73;6.90;;;19.70;91.30;;;;;;5091725;28;19916;-54
2023/06/16 07:12:58;;;;;;;9.52;8.07;;;19.80;90.30;;;;;;5092164;28;20089;-53
2023/06/16 07:15:24;;;;;;;9.60;7.97;;;19.80;90.10;;;;;;5091281;28;20337;-53
2023/06/16 07:17:49;;;;;;;;;;;20.00;90.20;;;;;;5089911;28;20064;-54
2023/06/16 07:20:15;;;;;;;10.38;9.35;;;20.10;90.00;;;;;;5086051;28;20293;-54
2023/06/16 07:22:42;;;;;;;;;;;20.20;89.30;;;;;;5071569;28;20127;-54
2023/06/16 07:25:09;;;;;;;10.00;7.97;;;20.20;89.40;;;;;;5067772;28;19932;-57
2023/06/16 07:27:34;;;;;;;10.60;7.30;;;20.30;88.30;;;;;;5073787;28;20104;-54
2023/06/16 07:30:00;;;;;;;;;;;20.40;87.80;;;;;;5089721;28;20304;-53
2023/06/16 07:32:26;;;;;;;9.57;7.70;;;20.50;87.40;;;;;;5086178;28;19916;-57
2023/06/16 07:34:52;;;;;;;;;;;20.50;87.60;;;;;;5099390;28;20504;-53
2023/06/16 07:37:18;;;;;;;6.57;5.97;;;20.70;84.10;;;;;;5084073;28;19928;-54
2023/06/16 07:39:44;;;;;;;;;;;20.80;84.60;;;;;;5084643;28;20050;-59
2023/06/16 07:42:09;;;;;;;9.20;6.40;;;20.90;84.10;;;;;;5075400;28;20002;-54
2023/06/16 07:44:35;;;;;;;;;;;20.90;84.10;;;;;;5078216;28;20106;-55
2023/06/16 07:47:00;;;;;;;7.57;6.60;;;21.10;83.20;;;;;;5083747;28;19916;-54
2023/06/16 07:49:26;;;;;;;;;;;21.10;83.30;;;;;;5077100;28;20454;-56
2023/06/16 07:51:52;;;;;;;6.63;6.03;;;21.20;83.20;;;;;;5085396;28;19916;-53
2023/06/16 07:54:17;;;;;;;;;;;21.30;83.70;;;;;;5081306;28;20545;-53
2023/06/16 07:56:43;;;;;;;9.10;5.47;;;21.40;83.30;;;;;;5085096;28;19916;-55
2023/06/16 07:59:08;;;;;;;;;;;21.50;82.80;;;;;;5078214;28;20028;-55
2023/06/16 08:01:34;;;;;;;7.70;5.47;;;21.60;81.90;;;;;;5086256;28;19920;-54
2023/06/16 08:04:00;;;;;;;6.55;5.88;;;21.70;81.90;;;;;;5085224;28;20479;-58
2023/06/16 08:06:27;;;;;;;;;;;21.80;81.20;;;;;;5086900;28;20097;-58
2023/06/16 08:08:53;;;;;;;10.73;7.55;;;21.90;78.90;;;;;;5086728;28;20344;-56
2023/06/16 08:11:19;;;;;;;13.50;6.80;;;22.00;80.20;;;;;;5084695;28;20035;-56
2023/06/16 08:13:45;;;;;;;12.45;5.55;;;22.00;79.80;;;;;;5084358;28;20036;-56
2023/06/16 08:16:11;;;;;;;;;;;22.10;80.70;;;;;;5084818;28;20047;-60
2023/06/16 08:18:38;;;;;;;6.65;5.40;;;22.10;79.60;;;;;;5085418;28;20369;-56
2023/06/16 08:21:04;;;;;;;13.07;5.53;;;22.20;80.70;;;;;;5082603;28;20039;-54
2023/06/16 08:23:29;;;;;;;;;;;22.30;79.90;;;;;;5085398;28;20077;-56
2023/06/16 08:25:55;;;;;;;6.97;5.63;;;22.30;78.50;;;;;;5084124;28;19946;-56
2023/06/16 08:28:21;;;;;;;8.15;5.80;;;22.40;80.10;;;;;;5084446;28;20127;-56
2023/06/16 08:30:46;;;;;;;5.80;5.18;;;22.50;80.20;;;;;;5084262;28;20307;-56
2023/06/16 08:33:12;;;;;;;8.85;6.32;;;22.60;80.00;;;;;;5078627;28;20410;-56
2023/06/16 08:35:38;;;;;;;;;;;22.70;79.20;;;;;;5084371;28;20082;-56
2023/06/16 08:38:03;;;;;;;8.02;6.57;;;22.70;78.90;;;;;;5079399;28;19920;-57
2023/06/16 08:40:30;;;;;;;6.53;5.38;;;22.70;79.40;;;;;;5085924;28;20042;-54
2023/06/16 08:42:56;;;;;;;9.57;6.95;;;22.80;79.80;;;;;;5080018;28;20116;-58
2023/06/16 08:45:23;;;;;;;6.28;5.15;;;22.90;80.00;;;;;;5075102;28;20068;-54
2023/06/16 08:47:50;;;;;;;5.80;5.05;;;23.00;79.50;;;;;;5082639;28;20036;-59
2023/06/16 08:50:19;;;;;;;7.65;4.68;;;23.10;79.00;;;;;;5074149;28;20128;-55
2023/06/16 08:52:46;;;;;;;13.80;5.43;;;23.10;78.50;;;;;;5078088;28;20037;-54
2023/06/16 08:55:14;;;;;;;5.80;5.00;;;23.20;78.60;;;;;;5077210;28;20136;-54
2023/06/16 08:58:00;;;;;;;8.27;4.05;;;23.20;78.00;;;;;;5077285;28;20086;-54
2023/06/16 09:00:27;;;;;;;6.97;4.67;;;23.30;77.60;;;;;;5076553;28;20389;-53
2023/06/16 09:02:56;;;;;;;8.52;4.82;;;23.40;77.80;;;;;;5080044;28;20286;-53
2023/06/16 09:05:23;;;;;;;11.27;5.05;;;23.40;77.80;;;;;;5080500;28;20433;-56
2023/06/16 09:07:50;;;;;;;5.38;4.65;;;23.50;76.20;;;;;;5076124;28;20033;-57
2023/06/16 09:10:16;;;;;;;4.72;4.32;;;23.50;76.90;;;;;;5076793;28;20064;-56
2023/06/16 09:12:42;;;;;;;7.57;4.68;;;23.60;76.60;;;;;;5076539;28;20032;-58
2023/06/16 09:15:10;;;;;;;8.27;4.78;;;23.70;76.70;;;;;;5074347;28;20038;-56
2023/06/16 09:17:37;;;;;;;5.03;3.65;;;23.70;75.50;;;;;;5075677;28;20032;-59
2023/06/16 09:20:06;;;;;;;7.47;4.30;;;23.80;74.90;;;;;;5075712;28;20432;-54
2023/06/16 09:22:32;;;;;;;6.00;4.32;;;23.80;74.80;;;;;;5078530;28;20066;-57
2023/06/16 09:25:07;;;;;;;3.78;3.42;;;23.90;75.20;;;;;;5078703;28;20131;-57
2023/06/16 09:27:50;;;;;;;5.55;4.18;;;23.90;75.80;;;;;;5076012;28;20107;-57
2023/06/16 09:30:21;;;;;;;4.07;3.78;;;24.00;75.70;;;;;;5077555;28;20040;-58
2023/06/16 09:32:53;;;;;;;5.85;3.67;;;24.10;75.00;;;;;;5078278;28;20036;-55
2023/06/16 09:35:24;;;;;;;4.82;3.30;;;24.10;74.20;;;;;;5076755;28;20047;-55
2023/06/16 09:37:52;;;;;;;3.47;2.78;;;24.20;74.60;;;;;;5076741;28;20047;-54
2023/06/16 09:40:19;;;;;;;3.95;3.63;;;24.30;75.10;;;;;;5080359;28;20429;-56
2023/06/16 09:42:46;;;;;;;12.05;4.32;;;24.40;74.80;;;;;;5076185;28;20135;-51
2023/06/16 09:45:17;;;;;;;9.25;3.72;;;24.40;74.20;;;;;;5083267;28;20573;-59
2023/06/16 09:47:44;;;;;;;5.47;4.25;;;24.50;73.70;;;;;;5081879;28;20553;-60
2023/06/16 09:50:14;;;;;;;9.88;3.97;;;24.50;73.40;;;;;;5081427;28;21074;-59
2023/06/16 09:52:44;;;;;;;10.02;5.13;;;24.50;73.80;;;;;;5081315;28;20097;-57
2023/06/16 09:55:12;;;;;;;19.48;4.13;;;24.60;73.70;;;;;;5072888;28;20047;-61
2023/06/16 09:57:40;;;;;;;14.60;4.07;;;24.70;73.20;;;;;;5069164;28;20032;-60
2023/06/16 10:00:15;;;;;;;5.95;3.03;;;24.70;72.50;;;;;;5078895;28;20097;-53
2023/06/16 10:02:50;;;;;;;4.93;2.75;;;24.70;72.20;;;;;;5082562;28;20045;-57
2023/06/16 10:05:21;;;;;;;9.43;3.53;;;24.80;71.50;;;;;;5077948;28;20032;-54
2023/06/16 10:07:56;;;;;;;9.85;4.05;;;24.90;72.20;;;;;;5075645;28;20036;-54
2023/06/16 10:10:28;;;;;;;3.78;3.45;;;24.90;71.30;;;;;;5076001;28;20048;-53
2023/06/16 10:12:56;;;;;;;9.80;4.18;;;25.00;72.60;;;;;;5075074;28;20040;-54
2023/06/16 10:15:30;;;;;;;4.63;3.22;;;25.10;72.40;;;;;;5087464;28;20036;-58
2023/06/16 10:18:04;;;;;;;3.03;2.70;;;25.20;71.60;;;;;;5072190;28;20051;-54
2023/06/16 10:20:32;;;;;;;4.10;2.63;;;25.20;71.60;;;;;;5075416;28;20117;-54
2023/06/16 10:23:00;;;;;;;6.95;3.63;;;25.20;71.50;;;;;;5075279;28;20090;-58
2023/06/16 10:25:28;;;;;;;17.15;4.28;;;25.30;70.60;;;;;;5080661;28;20581;-61
2023/06/16 10:27:55;;;;;;;10.48;3.50;;;25.30;70.10;;;;;;5069955;28;20037;-59
2023/06/16 10:30:21;;;;;;;3.47;2.40;;;25.40;70.80;;;;;;5080814;28;20130;-54
2023/06/16 10:32:48;;;;;;;9.30;3.72;;;25.50;68.90;;;;;;5075249;28;20111;-54
2023/06/16 10:35:14;;;;;;;3.13;2.85;;;25.50;69.90;;;;;;5077976;28;20059;-57
2023/06/16 10:37:40;;;;;;;4.53;3.47;;;25.50;69.80;;;;;;5073405;28;20089;-57
2023/06/16 10:40:09;;;;;;;6.90;2.70;;;25.50;70.90;;;;;;5084863;28;20057;-59
2023/06/16 10:42:38;;;;;;;7.32;3.17;;;25.60;69.80;;;;;;5076708;28;20489;-54
2023/06/16 10:45:29;;;;;;;4.22;2.58;;;25.60;69.90;;;;;;5084180;28;20052;-59
2023/06/16 10:48:03;;;;;;;5.22;2.60;;;25.70;69.50;;;;;;5074842;28;20090;-58
2023/06/16 10:50:58;;;;;;;3.58;2.67;;;25.80;70.00;;;;;;5084784;28;20499;-57
2023/06/16 10:53:24;;;;;;;3.53;2.75;;;25.80;68.50;;;;;;5073992;28;20032;-57
2023/06/16 10:56:10;;;;;;;4.70;3.17;;;26.00;69.20;;;;;;5081975;28;20040;-58
2023/06/16 10:58:36;;;;;;;6.70;3.13;;;26.00;69.10;;;;;;5085230;28;20435;-56
2023/06/16 11:01:02;;;;;;;3.17;2.88;;;26.10;69.60;;;;;;5082095;28;20120;-57
2023/06/16 11:03:44;;;;;;;8.60;3.10;;;26.20;68.60;;;;;;5078672;28;20040;-56
2023/06/16 11:06:10;;;;;;;3.72;2.88;;;26.20;68.60;;;;;;5082288;28;20072;-55
2023/06/16 11:08:56;;;;;;;5.00;2.70;;;26.30;68.20;;;;;;5078336;28;20075;-57
2023/06/16 11:11:31;;;;;;;4.45;2.03;;;26.30;67.50;;;;;;5081451;28;20032;-57
2023/06/16 11:13:56;;;;;;;6.20;2.35;;;26.30;66.80;;;;;;5078654;28;20036;-55
2023/06/16 11:16:22;;;;;;;4.70;2.53;;;26.30;67.60;;;;;;5085142;28;20036;-56
2023/06/16 11:18:50;;;;;;;9.30;2.20;;;26.40;67.80;;;;;;5082781;28;20036;-58
2023/06/16 11:21:16;;;;;;;2.33;2.13;;;26.50;66.70;;;;;;5082550;28;20049;-58
2023/06/16 11:23:43;;;;;;;10.85;2.42;;;26.50;65.10;;;;;;5077137;28;20417;-58
2023/06/16 11:26:15;;;;;;;5.88;2.38;;;26.50;66.10;;;;;;5082969;28;20053;-55
2023/06/16 11:28:42;;;;;;;8.45;2.60;;;26.60;66.40;;;;;;5079349;28;20029;-56
2023/06/16 11:31:12;;;;;;;5.70;1.80;;;26.60;66.60;;;;;;5078279;28;20115;-54
2023/06/16 11:33:39;;;;;;;1.90;1.80;;;26.70;64.10;;;;;;5086414;28;20051;-59
2023/06/16 11:36:19;;;;;;;5.50;2.15;;;26.70;63.90;;;;;;5082799;28;20063;-54
2023/06/16 11:38:46;;;;;;;6.25;1.88;;;26.70;63.30;;;;;;5080947;28;20039;-54
2023/06/16 11:41:31;;;;;;;3.50;1.58;;;26.80;63.30;;;;;;5081170;28;20540;-56
2023/06/16 11:43:57;;;;;;;3.85;1.75;;;26.80;62.00;;;;;;5079904;28;20409;-56
2023/06/16 11:46:27;;;;;;;3.97;1.65;;;26.80;62.00;;;;;;5080661;28;20416;-56
2023/06/16 11:48:54;;;;;;;3.50;1.35;;;26.80;61.20;;;;;;5073395;28;20122;-59
2023/06/16 11:51:21;;;;;;;4.78;1.75;;;26.90;60.70;;;;;;5083048;28;20032;-59
2023/06/16 11:53:47;;;;;;;2.80;1.38;;;26.90;61.10;;;;;;5072447;28;20513;-54
2023/06/16 11:56:17;;;;;;;3.42;1.60;;;26.90;60.30;;;;;;5082214;28;20083;-57
2023/06/16 11:58:44;;;;;;;9.38;1.73;;;26.90;60.30;;;;;;5082301;28;20521;-58
2023/06/16 12:01:14;;;;;;;3.35;1.48;;;26.90;61.10;;;;;;5076795;28;20036;-55
2023/06/16 12:03:41;;;;;;;5.22;1.73;;;26.90;61.90;;;;;;5078661;28;20024;-55
2023/06/16 12:06:08;;;;;;;2.13;1.30;;;26.90;61.30;;;;;;5076584;28;20052;-54
2023/06/16 12:08:45;;;;;;;9.15;1.63;;;27.00;61.10;;;;;;5077300;28;20111;-55
2023/06/16 12:11:13;;;;;;;2.83;1.20;;;27.00;59.80;;;;;;5081603;28;20032;-57
2023/06/16 12:13:40;;;;;;;2.97;1.33;;;27.00;59.60;;;;;;5081672;28;20076;-57
2023/06/16 12:16:08;;;;;;;4.60;1.75;;;27.00;59.40;;;;;;5082746;28;20147;-56
2023/06/16 12:18:34;;;;;;;6.13;1.80;;;27.00;59.90;;;;;;5078093;28;20096;-54
2023/06/16 12:21:32;;;;;;;9.85;2.13;;;27.00;59.10;;;;;;5081754;28;20042;-54
2023/06/16 12:23:59;;;;;;;6.13;1.13;;;27.10;60.20;;;;;;5068285;28;20105;-57
2023/06/16 12:26:33;;;;;;;3.53;1.83;;;27.20;60.60;;;;;;5088954;28;20089;-57
2023/06/16 12:29:01;;;;;;;8.27;2.20;;;27.20;60.10;;;;;;5090332;28;20064;-57
2023/06/16 12:31:28;;;;;;;6.43;1.75;;;27.20;59.70;;;;;;5100392;28;20032;-58
2023/06/16 12:33:55;;;;;;;5.38;1.88;;;27.20;61.00;;;;;;5089582;28;20038;-56
2023/06/16 12:36:22;;;;;;;31.30;2.67;;;27.20;59.10;;;;;;5090862;28;20048;-57
2023/06/16 12:38:48;;;;;;;2.22;1.20;;;27.20;58.70;;;;;;5089978;28;20032;-60
2023/06/16 12:41:15;;;;;;;11.75;1.30;;;27.20;60.10;;;;;;5088741;28;20043;-58
2023/06/16 12:43:50;;;;;;;18.45;1.77;;;27.20;58.60;;;;;;5089772;28;20515;-54
2023/06/16 12:46:17;;;;;;;4.30;1.58;;;27.20;58.30;;;;;;5090417;28;20036;-55
2023/06/16 12:48:45;;;;;;;4.90;1.30;;;27.20;58.30;;;;;;5090261;28;20126;-58
2023/06/16 12:51:11;;;;;;;2.83;1.20;;;27.20;58.70;;;;;;5087734;28;20039;-53